sensor_id;sensor_type;location;lat;lon;timestamp;P1;durP1;ratioP1;P2;durP2;ratioP2
4428;SDS011;2227;47.810;8.810;2022-09-03T04:31:15;6.30;;;5.47;;
4428;SDS011;2227;47.810;8.810;2022-09-03T04:33:43;8.75;;;5.40;;
4428;SDS011;2227;47.810;8.810;2022-09-03T04:36:12;8.75;;;5.13;;
4428;SDS011;2227;47.810;8.810;2022-09-03T04:38:40;6.20;;;5.50;;
4428;SDS011;2227;47.810;8.810;2022-09-03T04:41:10;6.25;;;5.57;;
4428;SDS011;2227;47.810;8.810;2022-09-03T04:43:38;6.80;;;5.63;;
4428;SDS011;2227;47.810;8.810;2022-09-03T04:46:08;6.43;;;5.70;;
4428;SDS011;2227;47.810;8.810;2022-09-03T04:48:46;7.13;;;5.38;;
4428;SDS011;2227;47.810;8.810;2022-09-03T04:51:18;6.40;;;5.50;;
4428;SDS011;2227;47.810;8.810;2022-09-03T04:53:47;6.88;;;5.20;;
4428;SDS011;2227;47.810;8.810;2022-09-03T04:56:20;8.02;;;6.15;;
4428;SDS011;2227;47.810;8.810;2022-09-03T04:58:52;8.25;;;5.65;;
4428;SDS011;2227;47.810;8.810;2022-09-03T05:01:22;7.10;;;5.93;;
4428;SDS011;2227;47.810;8.810;2022-09-03T05:03:52;7.78;;;6.22;;
4428;SDS011;2227;47.810;8.810;2022-09-03T05:06:20;8.23;;;5.95;;
4428;SDS011;2227;47.810;8.810;2022-09-03T05:08:50;9.40;;;6.93;;
4428;SDS011;2227;47.810;8.810;2022-09-03T05:11:19;8.27;;;6.22;;
4428;SDS011;2227;47.810;8.810;2022-09-03T05:13:46;8.18;;;6.50;;
4428;SDS011;2227;47.810;8.810;2022-09-03T05:16:15;7.75;;;5.95;;
4428;SDS011;2227;47.810;8.810;2022-09-03T05:18:42;8.55;;;6.57;;
4428;SDS011;2227;47.810;8.810;2022-09-03T05:21:11;7.13;;;6.05;;
4428;SDS011;2227;47.810;8.810;2022-09-03T05:23:40;7.75;;;6.30;;
4428;SDS011;2227;47.810;8.810;2022-09-03T05:26:10;8.15;;;6.63;;
4428;SDS011;2227;47.810;8.810;2022-09-03T05:28:40;7.80;;;6.22;;
4428;SDS011;2227;47.810;8.810;2022-09-03T05:31:09;9.13;;;6.95;;
4428;SDS011;2227;47.810;8.810;2022-09-03T05:33:38;7.00;;;5.93;;
4428;SDS011;2227;47.810;8.810;2022-09-03T05:36:08;9.02;;;7.00;;
4428;SDS011;2227;47.810;8.810;2022-09-03T05:38:37;8.93;;;6.80;;
4428;SDS011;2227;47.810;8.810;2022-09-03T05:41:05;8.90;;;6.82;;
4428;SDS011;2227;47.810;8.810;2022-09-03T05:43:33;9.10;;;6.88;;
4428;SDS011;2227;47.810;8.810;2022-09-03T05:46:03;8.07;;;6.47;;
4428;SDS011;2227;47.810;8.810;2022-09-03T05:48:35;9.50;;;6.38;;
4428;SDS011;2227;47.810;8.810;2022-09-03T05:51:10;8.00;;;6.38;;
4428;SDS011;2227;47.810;8.810;2022-09-03T05:53:42;7.57;;;5.93;;
4428;SDS011;2227;47.810;8.810;2022-09-03T05:56:14;8.73;;;6.13;;
4428;SDS011;2227;47.810;8.810;2022-09-03T05:58:47;8.27;;;6.95;;
4428;SDS011;2227;47.810;8.810;2022-09-03T06:01:19;7.90;;;6.70;;
4428;SDS011;2227;47.810;8.810;2022-09-03T06:03:52;7.97;;;6.28;;
4428;SDS011;2227;47.810;8.810;2022-09-03T06:06:27;7.32;;;6.60;;
4428;SDS011;2227;47.810;8.810;2022-09-03T06:09:00;7.85;;;6.40;;
4428;SDS011;2227;47.810;8.810;2022-09-03T06:11:29;7.57;;;6.22;;
4428;SDS011;2227;47.810;8.810;2022-09-03T06:13:58;9.45;;;6.65;;
4428;SDS011;2227;47.810;8.810;2022-09-03T06:16:27;8.40;;;6.70;;
4428;SDS011;2227;47.810;8.810;2022-09-03T06:18:57;8.13;;;6.43;;
4428;SDS011;2227;47.810;8.810;2022-09-03T06:21:25;8.77;;;6.22;;
4428;SDS011;2227;47.810;8.810;2022-09-03T06:23:53;8.15;;;5.93;;
4428;SDS011;2227;47.810;8.810;2022-09-03T06:26:25;9.10;;;6.53;;
4428;SDS011;2227;47.810;8.810;2022-09-03T06:28:54;9.18;;;6.88;;
4428;SDS011;2227;47.810;8.810;2022-09-03T06:31:22;9.40;;;7.25;;
4428;SDS011;2227;47.810;8.810;2022-09-03T06:33:50;9.02;;;6.88;;
4428;SDS011;2227;47.810;8.810;2022-09-03T06:36:19;9.68;;;7.95;;
4428;SDS011;2227;47.810;8.810;2022-09-03T06:38:50;9.32;;;7.63;;
4428;SDS011;2227;47.810;8.810;2022-09-03T06:41:22;9.15;;;7.18;;
4428;SDS011;2227;47.810;8.810;2022-09-03T06:43:54;9.07;;;7.13;;
4428;SDS011;2227;47.810;8.810;2022-09-03T06:46:27;8.23;;;6.40;;
4428;SDS011;2227;47.810;8.810;2022-09-03T06:48:59;9.10;;;6.63;;
4428;SDS011;2227;47.810;8.810;2022-09-03T06:51:28;8.82;;;6.60;;
4428;SDS011;2227;47.810;8.810;2022-09-03T06:54:00;8.02;;;6.35;;
4428;SDS011;2227;47.810;8.810;2022-09-03T06:56:29;9.13;;;6.57;;
4428;SDS011;2227;47.810;8.810;2022-09-03T06:58:59;8.88;;;7.03;;
4428;SDS011;2227;47.810;8.810;2022-09-03T07:01:31;8.57;;;6.53;;
4428;SDS011;2227;47.810;8.810;2022-09-03T07:03:59;7.53;;;6.72;;
4428;SDS011;2227;47.810;8.810;2022-09-03T07:06:31;7.10;;;5.85;;
4428;SDS011;2227;47.810;8.810;2022-09-03T07:09:03;9.52;;;6.53;;
4428;SDS011;2227;47.810;8.810;2022-09-03T07:11:31;8.27;;;6.40;;
4428;SDS011;2227;47.810;8.810;2022-09-03T07:13:59;8.38;;;6.10;;
4428;SDS011;2227;47.810;8.810;2022-09-03T07:16:44;7.90;;;6.28;;
4428;SDS011;2227;47.810;8.810;2022-09-03T07:19:11;7.82;;;5.63;;
4428;SDS011;2227;47.810;8.810;2022-09-03T07:21:39;5.90;;;4.90;;
4428;SDS011;2227;47.810;8.810;2022-09-03T07:24:11;6.93;;;5.10;;
4428;SDS011;2227;47.810;8.810;2022-09-03T07:26:39;6.72;;;5.13;;
4428;SDS011;2227;47.810;8.810;2022-09-03T07:29:09;7.68;;;5.47;;
4428;SDS011;2227;47.810;8.810;2022-09-03T07:31:39;6.75;;;5.43;;
4428;SDS011;2227;47.810;8.810;2022-09-03T07:34:08;6.80;;;5.35;;
4428;SDS011;2227;47.810;8.810;2022-09-03T07:36:37;7.28;;;5.60;;
4428;SDS011;2227;47.810;8.810;2022-09-03T07:39:08;9.90;;;5.70;;
4428;SDS011;2227;47.810;8.810;2022-09-03T07:41:37;6.68;;;5.60;;
4428;SDS011;2227;47.810;8.810;2022-09-03T07:44:04;6.20;;;4.47;;
4428;SDS011;2227;47.810;8.810;2022-09-03T07:46:34;7.60;;;5.00;;
4428;SDS011;2227;47.810;8.810;2022-09-03T07:49:03;7.55;;;5.03;;
4428;SDS011;2227;47.810;8.810;2022-09-03T07:51:35;7.28;;;4.88;;
4428;SDS011;2227;47.810;8.810;2022-09-03T07:54:04;6.45;;;4.78;;
4428;SDS011;2227;47.810;8.810;2022-09-03T07:56:34;6.70;;;4.40;;
4428;SDS011;2227;47.810;8.810;2022-09-03T07:59:02;5.93;;;4.00;;
4428;SDS011;2227;47.810;8.810;2022-09-03T08:01:30;5.78;;;3.65;;
4428;SDS011;2227;47.810;8.810;2022-09-03T08:03:58;6.30;;;3.33;;
4428;SDS011;2227;47.810;8.810;2022-09-03T08:06:26;7.57;;;3.78;;
4428;SDS011;2227;47.810;8.810;2022-09-03T08:08:55;3.88;;;2.30;;
4428;SDS011;2227;47.810;8.810;2022-09-03T08:11:30;3.28;;;1.85;;
4428;SDS011;2227;47.810;8.810;2022-09-03T08:13:59;3.25;;;1.80;;
4428;SDS011;2227;47.810;8.810;2022-09-03T08:16:28;2.72;;;1.45;;
4428;SDS011;2227;47.810;8.810;2022-09-03T08:18:57;3.28;;;1.67;;
4428;SDS011;2227;47.810;8.810;2022-09-03T08:21:25;2.03;;;1.50;;
4428;SDS011;2227;47.810;8.810;2022-09-03T08:23:54;3.40;;;1.58;;
4428;SDS011;2227;47.810;8.810;2022-09-03T08:26:35;2.30;;;1.45;;
4428;SDS011;2227;47.810;8.810;2022-09-03T08:29:04;2.00;;;1.23;;
4428;SDS011;2227;47.810;8.810;2022-09-03T08:31:32;3.00;;;1.55;;
4428;SDS011;2227;47.810;8.810;2022-09-03T08:34:02;2.25;;;1.40;;
4428;SDS011;2227;47.810;8.810;2022-09-03T08:36:33;2.28;;;1.30;;
4428;SDS011;2227;47.810;8.810;2022-09-03T08:39:02;2.42;;;1.30;;
4428;SDS011;2227;47.810;8.810;2022-09-03T08:50:02;2.78;;;1.05;;
4428;SDS011;2227;47.810;8.810;2022-09-03T08:52:41;1.77;;;1.10;;
4428;SDS011;2227;47.810;8.810;2022-09-03T08:55:58;1.63;;;0.90;;
4428;SDS011;2227;47.810;8.810;2022-09-03T08:58:15;1.67;;;1.02;;
4428;SDS011;2227;47.810;8.810;2022-09-03T09:00:48;2.13;;;1.27;;
4428;SDS011;2227;47.810;8.810;2022-09-03T09:05:55;2.80;;;0.98;;
4428;SDS011;2227;47.810;8.810;2022-09-03T09:11:30;2.92;;;1.00;;
4428;SDS011;2227;47.810;8.810;2022-09-03T09:21:54;2.53;;;1.40;;
4428;SDS011;2227;47.810;8.810;2022-09-03T09:24:38;2.25;;;1.40;;
4428;SDS011;2227;47.810;8.810;2022-09-03T09:27:07;2.58;;;1.20;;
4428;SDS011;2227;47.810;8.810;2022-09-03T09:29:41;1.63;;;1.10;;
4428;SDS011;2227;47.810;8.810;2022-09-03T09:32:09;2.08;;;1.10;;
4428;SDS011;2227;47.810;8.810;2022-09-03T09:34:38;2.53;;;1.15;;
4428;SDS011;2227;47.810;8.810;2022-09-03T09:37:08;2.92;;;1.25;;
4428;SDS011;2227;47.810;8.810;2022-09-03T09:39:39;2.20;;;1.10;;
4428;SDS011;2227;47.810;8.810;2022-09-03T09:42:08;2.97;;;1.20;;
4428;SDS011;2227;47.810;8.810;2022-09-03T09:44:37;1.83;;;0.98;;
4428;SDS011;2227;47.810;8.810;2022-09-03T09:47:12;2.08;;;1.10;;
4428;SDS011;2227;47.810;8.810;2022-09-03T09:49:51;1.80;;;0.90;;
4428;SDS011;2227;47.810;8.810;2022-09-03T09:52:23;1.80;;;0.82;;
4428;SDS011;2227;47.810;8.810;2022-09-03T09:54:52;1.40;;;0.88;;
4428;SDS011;2227;47.810;8.810;2022-09-03T09:57:33;1.38;;;0.90;;
4428;SDS011;2227;47.810;8.810;2022-09-03T10:00:04;2.80;;;1.15;;
4428;SDS011;2227;47.810;8.810;2022-09-03T10:02:35;2.85;;;1.20;;
4428;SDS011;2227;47.810;8.810;2022-09-03T10:05:12;2.20;;;1.10;;
4428;SDS011;2227;47.810;8.810;2022-09-03T10:07:53;4.32;;;1.17;;
4428;SDS011;2227;47.810;8.810;2022-09-03T10:10:22;3.38;;;1.38;;
4428;SDS011;2227;47.810;8.810;2022-09-03T10:21:23;2.42;;;1.05;;
4428;SDS011;2227;47.810;8.810;2022-09-03T10:26:41;2.45;;;1.10;;
4428;SDS011;2227;47.810;8.810;2022-09-03T10:29:16;3.55;;;1.30;;
4428;SDS011;2227;47.810;8.810;2022-09-03T10:48:24;3.10;;;1.40;;
4428;SDS011;2227;47.810;8.810;2022-09-03T10:51:05;2.80;;;1.30;;
4428;SDS011;2227;47.810;8.810;2022-09-03T10:53:43;2.30;;;1.38;;
4428;SDS011;2227;47.810;8.810;2022-09-03T10:57:06;2.70;;;1.42;;
4428;SDS011;2227;47.810;8.810;2022-09-03T11:05:34;2.85;;;1.20;;
4428;SDS011;2227;47.810;8.810;2022-09-03T11:08:20;2.80;;;1.40;;
4428;SDS011;2227;47.810;8.810;2022-09-03T11:10:54;2.92;;;1.48;;
4428;SDS011;2227;47.810;8.810;2022-09-03T11:13:30;2.13;;;1.23;;
4428;SDS011;2227;47.810;8.810;2022-09-03T11:16:02;2.45;;;1.42;;
4428;SDS011;2227;47.810;8.810;2022-09-03T11:18:46;2.33;;;1.30;;
4428;SDS011;2227;47.810;8.810;2022-09-03T11:21:17;3.20;;;1.58;;
4428;SDS011;2227;47.810;8.810;2022-09-03T11:23:51;2.13;;;1.27;;
4428;SDS011;2227;47.810;8.810;2022-09-03T11:26:25;3.78;;;1.10;;
4428;SDS011;2227;47.810;8.810;2022-09-03T11:28:55;1.88;;;0.98;;
4428;SDS011;2227;47.810;8.810;2022-09-03T11:31:45;3.08;;;1.27;;
4428;SDS011;2227;47.810;8.810;2022-09-03T11:34:29;1.75;;;1.10;;
4428;SDS011;2227;47.810;8.810;2022-09-03T11:40:14;2.10;;;0.90;;
4428;SDS011;2227;47.810;8.810;2022-09-03T11:42:43;1.95;;;1.00;;
4428;SDS011;2227;47.810;8.810;2022-09-03T11:45:33;2.17;;;1.10;;
4428;SDS011;2227;47.810;8.810;2022-09-03T11:47:58;1.15;;;0.80;;
4428;SDS011;2227;47.810;8.810;2022-09-03T11:50:25;1.50;;;0.90;;
4428;SDS011;2227;47.810;8.810;2022-09-03T11:53:06;2.08;;;1.00;;
4428;SDS011;2227;47.810;8.810;2022-09-03T11:58:37;2.58;;;1.10;;
4428;SDS011;2227;47.810;8.810;2022-09-03T12:01:12;2.88;;;0.70;;
4428;SDS011;2227;47.810;8.810;2022-09-03T12:11:52;2.17;;;0.90;;
4428;SDS011;2227;47.810;8.810;2022-09-03T12:14:33;1.00;;;0.60;;
4428;SDS011;2227;47.810;8.810;2022-09-03T12:19:56;1.60;;;0.90;;
4428;SDS011;2227;47.810;8.810;2022-09-03T12:22:27;1.33;;;0.90;;
4428;SDS011;2227;47.810;8.810;2022-09-03T12:25:06;1.70;;;1.00;;
4428;SDS011;2227;47.810;8.810;2022-09-03T12:27:43;1.80;;;1.10;;
4428;SDS011;2227;47.810;8.810;2022-09-03T12:30:16;2.72;;;1.20;;
4428;SDS011;2227;47.810;8.810;2022-09-03T12:32:44;2.97;;;1.30;;
4428;SDS011;2227;47.810;8.810;2022-09-03T12:35:14;1.27;;;0.82;;
4428;SDS011;2227;47.810;8.810;2022-09-03T12:40:41;1.63;;;0.90;;
4428;SDS011;2227;47.810;8.810;2022-09-03T12:43:28;1.73;;;1.10;;
4428;SDS011;2227;47.810;8.810;2022-09-03T12:46:12;1.80;;;1.00;;
4428;SDS011;2227;47.810;8.810;2022-09-03T12:49:03;1.65;;;0.95;;
4428;SDS011;2227;47.810;8.810;2022-09-03T12:51:50;1.98;;;0.88;;
4428;SDS011;2227;47.810;8.810;2022-09-03T12:54:24;1.75;;;1.10;;
4428;SDS011;2227;47.810;8.810;2022-09-03T12:56:54;2.55;;;0.90;;
4428;SDS011;2227;47.810;8.810;2022-09-03T12:59:23;1.60;;;0.70;;
4428;SDS011;2227;47.810;8.810;2022-09-03T13:01:54;1.92;;;0.90;;
4428;SDS011;2227;47.810;8.810;2022-09-03T13:04:30;1.17;;;0.70;;
4428;SDS011;2227;47.810;8.810;2022-09-03T13:07:03;2.53;;;0.88;;
4428;SDS011;2227;47.810;8.810;2022-09-03T13:09:39;0.90;;;0.60;;
4428;SDS011;2227;47.810;8.810;2022-09-03T13:12:19;0.70;;;0.40;;
4428;SDS011;2227;47.810;8.810;2022-09-03T13:15:03;1.40;;;0.60;;
4428;SDS011;2227;47.810;8.810;2022-09-03T13:23:30;0.93;;;0.50;;
4428;SDS011;2227;47.810;8.810;2022-09-03T13:34:15;1.23;;;0.55;;
4428;SDS011;2227;47.810;8.810;2022-09-03T13:37:07;1.20;;;0.50;;
4428;SDS011;2227;47.810;8.810;2022-09-03T13:39:57;1.67;;;0.65;;
4428;SDS011;2227;47.810;8.810;2022-09-03T13:45:12;1.20;;;0.80;;
4428;SDS011;2227;47.810;8.810;2022-09-03T13:47:56;1.30;;;0.60;;
4428;SDS011;2227;47.810;8.810;2022-09-03T13:51:05;1.17;;;0.68;;
4428;SDS011;2227;47.810;8.810;2022-09-03T13:56:54;1.58;;;0.73;;
4428;SDS011;2227;47.810;8.810;2022-09-03T14:07:44;1.92;;;1.05;;
4428;SDS011;2227;47.810;8.810;2022-09-03T14:19:16;1.80;;;1.00;;
4428;SDS011;2227;47.810;8.810;2022-09-03T14:22:00;2.10;;;1.00;;
4428;SDS011;2227;47.810;8.810;2022-09-03T14:24:44;2.05;;;0.95;;
4428;SDS011;2227;47.810;8.810;2022-09-03T14:27:28;1.75;;;0.98;;
4428;SDS011;2227;47.810;8.810;2022-09-03T14:30:04;3.30;;;1.13;;
4428;SDS011;2227;47.810;8.810;2022-09-03T14:35:34;2.15;;;1.02;;
4428;SDS011;2227;47.810;8.810;2022-09-03T14:55:13;1.40;;;0.85;;
4428;SDS011;2227;47.810;8.810;2022-09-03T15:00:44;1.63;;;0.80;;
4428;SDS011;2227;47.810;8.810;2022-09-03T15:15:17;1.48;;;1.00;;
4428;SDS011;2227;47.810;8.810;2022-09-03T15:20:50;1.90;;;1.10;;
4428;SDS011;2227;47.810;8.810;2022-09-03T15:26:43;2.20;;;1.20;;
4428;SDS011;2227;47.810;8.810;2022-09-03T15:29:44;2.58;;;1.00;;
4428;SDS011;2227;47.810;8.810;2022-09-03T15:35:05;1.35;;;0.90;;
4428;SDS011;2227;47.810;8.810;2022-09-03T15:43:16;1.20;;;1.00;;
4428;SDS011;2227;47.810;8.810;2022-09-03T15:46:04;2.38;;;0.93;;
4428;SDS011;2227;47.810;8.810;2022-09-03T15:48:46;2.05;;;0.93;;
4428;SDS011;2227;47.810;8.810;2022-09-03T15:53:52;1.55;;;0.82;;
4428;SDS011;2227;47.810;8.810;2022-09-03T15:56:52;2.70;;;1.23;;
4428;SDS011;2227;47.810;8.810;2022-09-03T15:59:34;2.95;;;1.30;;
4428;SDS011;2227;47.810;8.810;2022-09-03T16:02:16;2.35;;;1.30;;
4428;SDS011;2227;47.810;8.810;2022-09-03T16:05:13;1.50;;;0.90;;
4428;SDS011;2227;47.810;8.810;2022-09-03T16:07:48;1.98;;;1.08;;
4428;SDS011;2227;47.810;8.810;2022-09-03T16:10:34;1.40;;;1.00;;
4428;SDS011;2227;47.810;8.810;2022-09-03T16:13:19;3.55;;;1.42;;
4428;SDS011;2227;47.810;8.810;2022-09-03T16:16:01;1.30;;;0.90;;
4428;SDS011;2227;47.810;8.810;2022-09-03T16:21:42;1.70;;;1.10;;
4428;SDS011;2227;47.810;8.810;2022-09-03T16:24:18;2.10;;;1.13;;
4428;SDS011;2227;47.810;8.810;2022-09-03T16:27:00;1.70;;;1.10;;
4428;SDS011;2227;47.810;8.810;2022-09-03T16:29:36;2.00;;;1.13;;
4428;SDS011;2227;47.810;8.810;2022-09-03T16:42:47;2.08;;;1.20;;
4428;SDS011;2227;47.810;8.810;2022-09-03T16:46:21;4.20;;;2.70;;
4428;SDS011;2227;47.810;8.810;2022-09-03T17:12:26;6.55;;;4.18;;
4428;SDS011;2227;47.810;8.810;2022-09-03T17:15:22;8.50;;;6.93;;
4428;SDS011;2227;47.810;8.810;2022-09-03T17:18:04;10.38;;;6.95;;
4428;SDS011;2227;47.810;8.810;2022-09-03T17:20:47;5.18;;;3.25;;
4428;SDS011;2227;47.810;8.810;2022-09-03T17:26:09;3.17;;;1.60;;
4428;SDS011;2227;47.810;8.810;2022-09-03T17:29:02;4.07;;;2.20;;
4428;SDS011;2227;47.810;8.810;2022-09-03T17:31:47;5.97;;;3.40;;
4428;SDS011;2227;47.810;8.810;2022-09-03T17:40:06;5.72;;;3.30;;
4428;SDS011;2227;47.810;8.810;2022-09-03T17:56:39;2.58;;;1.60;;
4428;SDS011;2227;47.810;8.810;2022-09-03T17:59:24;2.33;;;1.35;;
4428;SDS011;2227;47.810;8.810;2022-09-03T18:01:59;3.10;;;1.52;;
4428;SDS011;2227;47.810;8.810;2022-09-03T18:04:47;2.58;;;1.80;;
4428;SDS011;2227;47.810;8.810;2022-09-03T18:15:31;4.78;;;2.95;;
4428;SDS011;2227;47.810;8.810;2022-09-03T18:20:50;2.58;;;1.67;;
4428;SDS011;2227;47.810;8.810;2022-09-03T18:26:48;4.20;;;1.65;;
4428;SDS011;2227;47.810;8.810;2022-09-03T18:29:44;3.13;;;1.70;;
4428;SDS011;2227;47.810;8.810;2022-09-03T18:32:33;2.85;;;1.60;;
4428;SDS011;2227;47.810;8.810;2022-09-03T18:35:18;2.90;;;1.58;;
4428;SDS011;2227;47.810;8.810;2022-09-03T18:38:04;3.70;;;1.98;;
4428;SDS011;2227;47.810;8.810;2022-09-03T18:40:55;3.42;;;2.00;;
4428;SDS011;2227;47.810;8.810;2022-09-03T18:44:09;4.43;;;1.90;;
4428;SDS011;2227;47.810;8.810;2022-09-03T18:50:34;2.78;;;1.70;;
4428;SDS011;2227;47.810;8.810;2022-09-03T19:09:37;3.25;;;2.00;;
4428;SDS011;2227;47.810;8.810;2022-09-03T19:21:29;3.70;;;1.92;;
4428;SDS011;2227;47.810;8.810;2022-09-03T19:24:29;5.30;;;2.08;;
4428;SDS011;2227;47.810;8.810;2022-09-03T19:27:34;4.70;;;3.05;;
4428;SDS011;2227;47.810;8.810;2022-09-03T19:30:40;4.70;;;3.55;;
4428;SDS011;2227;47.810;8.810;2022-09-03T19:33:55;4.75;;;2.92;;
4428;SDS011;2227;47.810;8.810;2022-09-03T19:46:04;5.38;;;3.58;;
4428;SDS011;2227;47.810;8.810;2022-09-03T19:49:24;4.20;;;2.75;;
4428;SDS011;2227;47.810;8.810;2022-09-03T19:55:44;3.67;;;2.63;;
4428;SDS011;2227;47.810;8.810;2022-09-03T19:58:33;4.93;;;2.70;;
4428;SDS011;2227;47.810;8.810;2022-09-03T20:01:22;3.50;;;2.33;;
4428;SDS011;2227;47.810;8.810;2022-09-03T20:04:14;4.38;;;2.35;;
4428;SDS011;2227;47.810;8.810;2022-09-03T20:07:00;3.85;;;2.00;;
4428;SDS011;2227;47.810;8.810;2022-09-03T20:09:50;7.25;;;4.63;;
4428;SDS011;2227;47.810;8.810;2022-09-03T20:12:39;5.85;;;4.25;;
4428;SDS011;2227;47.810;8.810;2022-09-03T20:15:10;5.75;;;3.75;;
4428;SDS011;2227;47.810;8.810;2022-09-03T20:17:40;3.70;;;2.67;;
4428;SDS011;2227;47.810;8.810;2022-09-03T20:23:14;3.55;;;2.40;;
4428;SDS011;2227;47.810;8.810;2022-09-03T20:26:20;4.30;;;2.63;;
4428;SDS011;2227;47.810;8.810;2022-09-03T20:32:33;5.50;;;3.65;;
4428;SDS011;2227;47.810;8.810;2022-09-03T20:35:26;4.05;;;2.78;;
4428;SDS011;2227;47.810;8.810;2022-09-03T20:52:10;4.28;;;2.80;;
4428;SDS011;2227;47.810;8.810;2022-09-03T20:57:35;5.28;;;2.55;;
4428;SDS011;2227;47.810;8.810;2022-09-03T21:00:14;4.35;;;2.30;;
4428;SDS011;2227;47.810;8.810;2022-09-03T21:02:48;4.28;;;3.00;;
4428;SDS011;2227;47.810;8.810;2022-09-03T21:05:28;4.35;;;3.33;;
4428;SDS011;2227;47.810;8.810;2022-09-03T21:08:09;6.40;;;3.90;;
4428;SDS011;2227;47.810;8.810;2022-09-03T21:21:25;5.38;;;3.75;;
4428;SDS011;2227;47.810;8.810;2022-09-03T21:24:10;6.72;;;3.78;;
4428;SDS011;2227;47.810;8.810;2022-09-03T21:26:44;4.90;;;3.25;;
4428;SDS011;2227;47.810;8.810;2022-09-03T21:29:22;7.78;;;3.95;;
4428;SDS011;2227;47.810;8.810;2022-09-03T21:31:58;6.95;;;3.72;;
4428;SDS011;2227;47.810;8.810;2022-09-03T21:34:38;7.70;;;4.55;;
4428;SDS011;2227;47.810;8.810;2022-09-03T21:37:09;5.93;;;3.38;;
4428;SDS011;2227;47.810;8.810;2022-09-03T21:39:42;5.10;;;3.60;;
4428;SDS011;2227;47.810;8.810;2022-09-03T21:42:19;10.10;;;5.93;;
4428;SDS011;2227;47.810;8.810;2022-09-03T21:45:10;11.65;;;7.03;;
4428;SDS011;2227;47.810;8.810;2022-09-03T21:47:47;10.25;;;5.75;;
4428;SDS011;2227;47.810;8.810;2022-09-03T21:50:20;8.55;;;4.80;;
4428;SDS011;2227;47.810;8.810;2022-09-03T21:52:52;6.47;;;3.10;;
4428;SDS011;2227;47.810;8.810;2022-09-03T21:55:40;5.28;;;3.45;;
4428;SDS011;2227;47.810;8.810;2022-09-03T22:01:51;4.45;;;3.00;;
4428;SDS011;2227;47.810;8.810;2022-09-03T22:04:19;4.25;;;2.30;;
4428;SDS011;2227;47.810;8.810;2022-09-03T22:06:50;5.65;;;2.90;;
4428;SDS011;2227;47.810;8.810;2022-09-03T22:09:55;5.00;;;2.65;;
4428;SDS011;2227;47.810;8.810;2022-09-03T22:12:31;4.45;;;2.72;;
4428;SDS011;2227;47.810;8.810;2022-09-03T22:15:12;3.90;;;2.40;;
4428;SDS011;2227;47.810;8.810;2022-09-03T22:17:50;3.95;;;2.47;;
4428;SDS011;2227;47.810;8.810;2022-09-03T22:20:31;5.32;;;2.50;;
4428;SDS011;2227;47.810;8.810;2022-09-03T22:23:04;4.13;;;2.50;;
4428;SDS011;2227;47.810;8.810;2022-09-03T22:25:48;5.90;;;2.67;;
4428;SDS011;2227;47.810;8.810;2022-09-03T22:28:41;3.97;;;2.75;;
4428;SDS011;2227;47.810;8.810;2022-09-03T22:37:00;3.95;;;2.35;;
4428;SDS011;2227;47.810;8.810;2022-09-03T22:50:56;4.20;;;2.72;;
4428;SDS011;2227;47.810;8.810;2022-09-03T22:56:28;6.13;;;2.90;;
4428;SDS011;2227;47.810;8.810;2022-09-03T22:59:00;5.32;;;3.10;;
4428;SDS011;2227;47.810;8.810;2022-09-03T23:04:18;5.60;;;3.08;;
4428;SDS011;2227;47.810;8.810;2022-09-03T23:06:58;4.32;;;2.58;;
4428;SDS011;2227;47.810;8.810;2022-09-03T23:09:39;4.03;;;2.60;;
4428;SDS011;2227;47.810;8.810;2022-09-03T23:12:11;4.25;;;2.55;;
4428;SDS011;2227;47.810;8.810;2022-09-03T23:14:46;5.40;;;3.53;;
4428;SDS011;2227;47.810;8.810;2022-09-03T23:17:18;4.00;;;2.58;;
4428;SDS011;2227;47.810;8.810;2022-09-03T23:19:55;5.72;;;2.90;;
4428;SDS011;2227;47.810;8.810;2022-09-03T23:25:31;4.45;;;2.90;;
4428;SDS011;2227;47.810;8.810;2022-09-03T23:28:23;4.40;;;2.88;;
